createdAt,value
2019-05-25T00:00:08.647Z,11.40
2019-05-25T00:05:14.153Z,10.37
2019-05-25T00:10:19.399Z,12.03
2019-05-25T00:15:24.426Z,11.90
2019-05-25T00:20:30.005Z,11.40
2019-05-25T00:25:36.220Z,9.93
2019-05-25T00:30:41.281Z,12.63
2019-05-25T00:35:46.443Z,11.97
2019-05-25T00:40:52.470Z,11.07
2019-05-25T00:45:57.402Z,10.90
2019-05-25T00:51:02.246Z,13.53
2019-05-25T00:56:06.601Z,13.50
2019-05-25T01:01:10.021Z,10.90
2019-05-25T01:06:14.147Z,10.73
2019-05-25T01:11:18.209Z,12.63
2019-05-25T01:16:22.259Z,20.53
2019-05-25T01:21:26.547Z,13.57
2019-05-25T01:26:29.950Z,13.20
2019-05-25T01:31:33.456Z,14.03
2019-05-25T01:36:38.449Z,17.43
2019-05-25T01:41:42.481Z,15.53
2019-05-25T01:46:46.605Z,15.50
2019-05-25T01:51:50.622Z,16.60
2019-05-25T01:56:54.769Z,19.10
2019-05-25T02:01:58.342Z,17.33
2019-05-25T02:07:03.535Z,17.57
2019-05-25T02:12:07.642Z,17.53
2019-05-25T02:17:12.633Z,20.33
2019-05-25T02:22:17.667Z,27.73
2019-05-25T02:27:23.015Z,26.50
2019-05-25T02:32:30.958Z,21.40
2019-05-25T02:37:47.637Z,21.27
2019-05-25T02:42:53.037Z,20.73
2019-05-25T02:47:58.047Z,22.60
2019-05-25T02:53:03.141Z,22.00
2019-05-25T02:58:24.890Z,25.70
2019-05-25T03:03:29.927Z,26.90
2019-05-25T03:08:36.836Z,23.23
2019-05-25T03:13:42.099Z,24.33
2019-05-25T03:18:47.335Z,28.07
2019-05-25T03:24:11.314Z,22.87
2019-05-25T03:29:16.772Z,25.13
2019-05-25T03:34:21.679Z,24.33
2019-05-25T03:39:26.991Z,22.77
2019-05-25T03:44:32.010Z,24.73
2019-05-25T03:49:37.442Z,27.20
2019-05-25T03:54:42.016Z,23.00
2019-05-25T03:59:47.814Z,24.63
2019-05-25T04:04:52.783Z,27.50
2019-05-25T04:09:57.651Z,27.70
2019-05-25T04:15:02.971Z,24.27
2019-05-25T04:20:09.205Z,29.00
2019-05-25T04:25:13.332Z,27.70
2019-05-25T04:30:19.407Z,25.33
2019-05-25T04:35:24.573Z,24.57
2019-05-25T04:40:29.647Z,25.43
2019-05-25T04:45:34.976Z,25.37
2019-05-25T04:50:40.082Z,23.23
2019-05-25T04:55:43.440Z,24.47
2019-05-25T05:00:47.684Z,27.50
2019-05-25T05:05:51.708Z,26.10
2019-05-25T05:10:55.646Z,26.53
2019-05-25T05:16:00.618Z,30.50
2019-05-25T05:21:05.537Z,26.23
2019-05-25T05:26:10.867Z,26.47
2019-05-25T05:31:23.602Z,25.20
2019-05-25T05:36:23.974Z,27.97
2019-05-25T05:41:31.290Z,27.87
2019-05-25T05:46:39.077Z,29.37
2019-05-25T05:51:48.772Z,29.37
2019-05-25T05:56:53.494Z,30.43
2019-05-25T06:01:57.901Z,29.83
2019-05-25T06:07:02.688Z,28.40
2019-05-25T06:12:06.924Z,31.13
2019-05-25T06:17:12.056Z,23.67
2019-05-25T06:22:17.252Z,30.20
2019-05-25T06:27:27.481Z,20.80
2019-05-25T06:32:30.458Z,15.27
2019-05-25T06:37:35.888Z,17.10
2019-05-25T06:42:41.247Z,15.77
2019-05-25T06:47:46.754Z,17.30
2019-05-25T06:52:52.315Z,13.30
2019-05-25T06:57:57.428Z,15.87
2019-05-25T07:03:02.344Z,21.50
2019-05-25T07:08:07.436Z,17.00
2019-05-25T07:13:12.472Z,20.57
2019-05-25T07:18:17.522Z,12.43
2019-05-25T07:23:22.631Z,13.60
2019-05-25T07:28:27.840Z,14.00
2019-05-25T07:33:33.252Z,11.97
2019-05-25T07:38:38.354Z,11.60
2019-05-25T07:43:43.133Z,15.10
2019-05-25T07:48:50.342Z,15.80
2019-05-25T07:53:56.921Z,14.10
2019-05-25T07:59:02.096Z,11.70
2019-05-25T08:04:07.149Z,13.13
2019-05-25T08:09:12.234Z,18.53
2019-05-25T08:14:17.625Z,16.63
2019-05-25T08:19:32.833Z,18.13
2019-05-25T08:24:38.166Z,16.80
2019-05-25T08:29:43.713Z,16.00
2019-05-25T08:34:49.518Z,10.90
2019-05-25T08:40:05.190Z,12.57
2019-05-25T08:45:10.406Z,12.50
2019-05-25T08:50:15.566Z,12.97
2019-05-25T08:55:20.739Z,12.03
2019-05-25T09:00:26.202Z,13.10
2019-05-25T09:05:32.051Z,13.73
2019-05-25T09:10:37.268Z,13.93
2019-05-25T09:15:42.174Z,15.67
2019-05-25T09:20:45.532Z,13.90
2019-05-25T09:25:51.430Z,12.17
2019-05-25T09:30:57.054Z,19.80
2019-05-25T09:36:03.502Z,15.27
2019-05-25T09:41:08.072Z,15.87
2019-05-25T09:46:13.259Z,12.60
2019-05-25T09:51:17.486Z,12.33
2019-05-25T09:56:22.336Z,11.90
2019-05-25T10:01:26.684Z,11.77
2019-05-25T10:06:31.547Z,10.80
2019-05-25T10:11:36.420Z,10.03
2019-05-25T10:16:40.732Z,12.00
2019-05-25T10:21:45.318Z,14.57
2019-05-25T10:26:50.061Z,10.50
2019-05-25T10:31:55.859Z,10.47
2019-05-25T10:37:02.664Z,9.87
2019-05-25T10:42:08.310Z,8.53
2019-05-25T10:47:13.759Z,9.20
2019-05-25T10:52:18.618Z,10.00
2019-05-25T10:57:23.259Z,12.60
2019-05-25T11:02:27.983Z,10.43
2019-05-25T11:07:32.371Z,14.20
2019-05-25T11:12:38.133Z,8.90
2019-05-25T11:17:43.138Z,12.17
2019-05-25T11:22:48.151Z,13.77
2019-05-25T11:27:53.357Z,12.90
2019-05-25T11:32:59.783Z,15.33
2019-05-25T11:38:05.143Z,11.93
2019-05-25T11:43:10.989Z,10.10
2019-05-25T11:48:16.756Z,12.83
2019-05-25T11:53:22.021Z,11.63
2019-05-25T11:58:28.033Z,7.83
2019-05-25T12:03:33.366Z,9.13
2019-05-25T12:08:38.531Z,8.97
2019-05-25T12:13:43.934Z,14.50
2019-05-25T12:18:49.147Z,9.40
2019-05-25T12:23:54.315Z,8.53
2019-05-25T12:28:59.689Z,10.23
2019-05-25T12:34:05.878Z,9.50
2019-05-25T12:39:11.286Z,5.80
2019-05-25T12:44:17.126Z,5.63
2019-05-25T12:49:23.093Z,4.97
2019-05-25T12:54:28.779Z,8.90
2019-05-25T12:59:35.486Z,3.23
2019-05-25T13:04:41.406Z,6.93
2019-05-25T13:09:49.042Z,4.17
2019-05-25T13:14:54.394Z,4.57
2019-05-25T13:19:59.601Z,5.27
2019-05-25T13:25:05.634Z,3.40
2019-05-25T13:30:11.087Z,1.83
2019-05-25T13:35:17.068Z,7.80
2019-05-25T13:40:23.173Z,3.27
2019-05-25T13:45:27.014Z,1.60
2019-05-25T13:50:32.532Z,2.17
2019-05-25T13:55:37.627Z,1.40
2019-05-25T14:00:43.055Z,2.50
2019-05-25T14:05:48.424Z,3.03
2019-05-25T14:10:53.953Z,3.53
2019-05-25T14:16:07.262Z,1.53
2019-05-25T14:21:08.397Z,6.20
2019-05-25T14:26:14.352Z,1.57
2019-05-25T14:31:20.093Z,3.63
2019-05-25T14:36:25.191Z,4.33
2019-05-25T14:41:33.163Z,2.00
2019-05-25T14:46:41.462Z,1.93
2019-05-25T14:51:47.071Z,4.53
2019-05-25T14:56:51.533Z,3.23
2019-05-25T15:02:02.329Z,2.73
2019-05-25T15:07:03.743Z,2.00
2019-05-25T15:12:09.851Z,2.00
2019-05-25T15:17:14.611Z,1.90
2019-05-25T15:22:20.448Z,1.80
2019-05-25T15:27:25.976Z,2.50
2019-05-25T15:32:31.208Z,7.43
2019-05-25T15:37:37.384Z,3.57
2019-05-25T15:42:42.838Z,1.90
2019-05-25T15:47:48.020Z,2.10
2019-05-25T15:52:56.336Z,1.63
2019-05-25T15:57:59.961Z,2.30
2019-05-25T16:03:05.632Z,2.07
2019-05-25T16:08:11.209Z,6.87
2019-05-25T16:13:18.095Z,5.57
2019-05-25T16:18:27.052Z,15.40
2019-05-25T16:23:32.454Z,2.93
2019-05-25T16:28:37.790Z,7.20
2019-05-25T16:33:43.040Z,2.33
2019-05-25T16:38:49.193Z,8.17
2019-05-25T16:43:54.552Z,3.27
2019-05-25T16:48:59.729Z,5.83
2019-05-25T16:54:05.804Z,3.40
2019-05-25T16:59:10.840Z,3.93
2019-05-25T17:04:16.101Z,3.60
2019-05-25T17:09:21.999Z,10.63
2019-05-25T17:14:35.183Z,3.27
2019-05-25T17:19:53.871Z,3.20
2019-05-25T17:25:08.270Z,4.40
2019-05-25T17:30:23.625Z,12.10
2019-05-25T17:35:38.018Z,3.77
2019-05-25T17:40:52.620Z,3.20
2019-05-25T17:46:12.283Z,4.63
2019-05-25T17:51:33.519Z,8.47
2019-05-25T17:56:56.769Z,7.17
2019-05-25T18:02:19.566Z,5.40
2019-05-25T18:07:34.621Z,4.20
2019-05-25T18:12:49.824Z,4.20
2019-05-25T18:18:03.413Z,6.20
2019-05-25T18:23:17.289Z,4.90
2019-05-25T18:28:32.563Z,6.00
2019-05-25T18:33:47.128Z,5.90
2019-05-25T18:39:03.661Z,5.30
2019-05-25T18:44:18.101Z,6.93
2019-05-25T18:49:32.960Z,6.17
2019-05-25T18:54:47.064Z,9.13
2019-05-25T19:00:00.842Z,9.03
2019-05-25T19:05:15.379Z,5.37
2019-05-25T19:10:29.349Z,7.50
2019-05-25T19:15:44.842Z,7.40
2019-05-25T19:20:59.167Z,8.63
2019-05-25T19:26:19.387Z,9.10
2019-05-25T19:31:39.823Z,9.37
2019-05-25T19:37:03.318Z,6.97
2019-05-25T19:42:16.940Z,7.00
2019-05-25T19:47:31.865Z,9.00
2019-05-25T19:52:46.005Z,8.00
2019-05-25T19:57:59.943Z,8.27
2019-05-25T20:03:17.183Z,10.30
2019-05-25T20:08:31.565Z,12.00
2019-05-25T20:13:46.583Z,8.50
2019-05-25T20:19:00.825Z,7.60
2019-05-25T20:24:14.610Z,9.67
2019-05-25T20:29:28.585Z,12.90
2019-05-25T20:34:45.428Z,7.70
2019-05-25T20:39:57.572Z,14.33
2019-05-25T20:45:13.063Z,8.07
2019-05-25T20:50:28.124Z,9.33
2019-05-25T20:55:42.102Z,11.70
2019-05-25T21:00:56.002Z,9.97
2019-05-25T21:06:13.161Z,12.13
2019-05-25T21:11:32.511Z,8.57
2019-05-25T21:16:53.420Z,11.47
2019-05-25T21:22:22.922Z,11.73
2019-05-25T21:27:38.285Z,13.87
2019-05-25T21:32:52.455Z,9.97
2019-05-25T21:38:07.681Z,10.67
2019-05-25T21:43:22.528Z,9.47
2019-05-25T21:48:36.729Z,10.27
2019-05-25T21:53:50.959Z,8.90
2019-05-25T21:59:04.483Z,9.83
2019-05-25T22:04:20.286Z,15.63
2019-05-25T22:09:34.968Z,11.80
2019-05-25T22:14:48.586Z,10.63
2019-05-25T22:20:02.204Z,17.47
2019-05-25T22:25:16.859Z,13.00
2019-05-25T22:30:30.783Z,12.73
2019-05-25T22:35:45.644Z,9.90
2019-05-25T22:41:00.946Z,9.97
2019-05-25T22:46:20.313Z,9.47
2019-05-25T22:51:38.091Z,10.67
2019-05-25T22:56:56.848Z,10.00
2019-05-25T23:02:14.445Z,9.83
2019-05-25T23:07:28.799Z,8.70
2019-05-25T23:12:42.838Z,9.33
2019-05-25T23:17:56.586Z,9.77
2019-05-25T23:23:10.982Z,7.13
2019-05-25T23:28:25.186Z,13.07
2019-05-25T23:33:38.752Z,8.93
2019-05-25T23:38:53.036Z,8.30
2019-05-25T23:44:07.287Z,7.67
2019-05-25T23:49:21.022Z,7.83
2019-05-25T23:54:34.786Z,8.80
2019-05-25T23:59:48.665Z,8.70
